LIPK/FRL METAR and TAF weather

Enter ICAO airport designator
Station Type Date Time Source
LIPK METAR 2023/02/05 12:50 UTC NOAA

LIPK 051250Z 11012KT 9999 SCT030 08/M04 Q1032


Station Type Date Time Source
LIPK Decoded METAR 2023/02/05 12:50 UTC NOAA

Forli, Italy (LIPK) 44-12N 012-04E 32M
Feb 05, 2023 - 07:50 AM EST / 2023.02.05 1250 UTC
Wind: from the ESE (110 degrees) at 14 MPH (12 KT):0
Visibility: greater than 7 mile(s):0
Sky conditions: partly cloudy
Temperature: 46 F (8 C)
Dew Point: 24 F (-4 C)
Relative Humidity: 42%
Pressure (altimeter): 30.47 in. Hg (1032 hPa)
ob: LIPK 051250Z 11012KT 9999 SCT030 08/M04 Q1032
cycle: 13

Station Type Date Time Source
LIPK TAF 2023/02/05 12:21 UTC NOAA

TAF LIPK 051100Z 0512/0612 11012KT CAVOK
BECMG 0515/0517 VRB05KT

Example: see airport list